sensor_id;sensor_type;location;lat;lon;timestamp;pressure;altitude;pressure_sealevel;temperature;humidity
43503;BME280;29098;48.184;16.298;2024-01-15T00:01:44;97966.09;;;-2.01;93.12
43503;BME280;29098;48.184;16.298;2024-01-15T00:04:09;97987.03;;;-1.75;93.18
43503;BME280;29098;48.184;16.298;2024-01-15T00:06:35;97969.91;;;-1.86;93.81
43503;BME280;29098;48.184;16.298;2024-01-15T00:09:00;98017.50;;;-1.69;93.82
43503;BME280;29098;48.184;16.298;2024-01-15T00:11:26;98003.34;;;-1.55;92.73
43503;BME280;29098;48.184;16.298;2024-01-15T00:13:52;97973.16;;;-1.64;92.39
43503;BME280;29098;48.184;16.298;2024-01-15T00:16:18;98018.31;;;-1.58;93.04
43503;BME280;29098;48.184;16.298;2024-01-15T00:18:43;97999.84;;;-1.63;93.09
43503;BME280;29098;48.184;16.298;2024-01-15T00:21:09;97953.06;;;-1.80;92.45
43503;BME280;29098;48.184;16.298;2024-01-15T00:23:35;98012.59;;;-1.62;92.53
43503;BME280;29098;48.184;16.298;2024-01-15T00:26:01;97999.97;;;-1.65;92.48
43503;BME280;29098;48.184;16.298;2024-01-15T00:28:29;97976.84;;;-1.86;92.98
43503;BME280;29098;48.184;16.298;2024-01-15T00:30:54;97911.75;;;-2.00;92.78
43503;BME280;29098;48.184;16.298;2024-01-15T00:33:20;97964.50;;;-1.73;92.69
43503;BME280;29098;48.184;16.298;2024-01-15T00:35:45;97946.66;;;-1.76;92.64
43503;BME280;29098;48.184;16.298;2024-01-15T00:38:11;97979.56;;;-1.68;92.78
43503;BME280;29098;48.184;16.298;2024-01-15T00:40:36;97937.56;;;-1.90;92.60
43503;BME280;29098;48.184;16.298;2024-01-15T00:43:02;97944.91;;;-1.66;91.82
43503;BME280;29098;48.184;16.298;2024-01-15T00:45:28;97979.69;;;-1.50;92.45
43503;BME280;29098;48.184;16.298;2024-01-15T00:47:54;97936.19;;;-1.64;91.40
43503;BME280;29098;48.184;16.298;2024-01-15T00:50:21;97941.63;;;-1.68;91.50
43503;BME280;29098;48.184;16.298;2024-01-15T00:52:47;97934.03;;;-1.69;91.22
43503;BME280;29098;48.184;16.298;2024-01-15T00:55:12;97924.78;;;-1.72;91.10
43503;BME280;29098;48.184;16.298;2024-01-15T00:57:38;97912.94;;;-1.84;91.76
43503;BME280;29098;48.184;16.298;2024-01-15T01:00:04;97918.66;;;-1.90;91.75
43503;BME280;29098;48.184;16.298;2024-01-15T01:02:29;97945.56;;;-1.63;91.31
43503;BME280;29098;48.184;16.298;2024-01-15T01:04:55;97900.88;;;-1.94;90.87
43503;BME280;29098;48.184;16.298;2024-01-15T01:07:20;97979.97;;;-1.63;91.94
43503;BME280;29098;48.184;16.298;2024-01-15T01:09:45;97943.81;;;-1.73;92.07
43503;BME280;29098;48.184;16.298;2024-01-15T01:12:11;97937.53;;;-1.60;91.68
43503;BME280;29098;48.184;16.298;2024-01-15T01:14:37;97982.13;;;-1.39;91.12
43503;BME280;29098;48.184;16.298;2024-01-15T01:17:02;97944.31;;;-1.59;92.14
43503;BME280;29098;48.184;16.298;2024-01-15T01:19:28;97939.03;;;-1.58;92.09
43503;BME280;29098;48.184;16.298;2024-01-15T01:21:53;97919.34;;;-1.88;92.33
43503;BME280;29098;48.184;16.298;2024-01-15T01:24:18;97963.78;;;-1.55;92.00
43503;BME280;29098;48.184;16.298;2024-01-15T01:26:44;97917.38;;;-1.47;90.51
43503;BME280;29098;48.184;16.298;2024-01-15T01:29:11;97974.66;;;-1.42;90.23
43503;BME280;29098;48.184;16.298;2024-01-15T01:31:42;97890.09;;;-1.79;90.60
43503;BME280;29098;48.184;16.298;2024-01-15T01:34:08;97917.69;;;-1.70;90.88
43503;BME280;29098;48.184;16.298;2024-01-15T01:36:33;97924.78;;;-1.72;90.44
43503;BME280;29098;48.184;16.298;2024-01-15T01:38:59;97933.19;;;-1.50;89.95
43503;BME280;29098;48.184;16.298;2024-01-15T01:41:24;97960.22;;;-1.34;89.50
43503;BME280;29098;48.184;16.298;2024-01-15T01:43:50;97947.84;;;-1.41;89.68
43503;BME280;29098;48.184;16.298;2024-01-15T01:46:15;97932.81;;;-1.27;88.90
43503;BME280;29098;48.184;16.298;2024-01-15T01:48:41;97886.66;;;-1.50;89.31
43503;BME280;29098;48.184;16.298;2024-01-15T01:51:07;97896.59;;;-1.55;89.24
43503;BME280;29098;48.184;16.298;2024-01-15T01:53:34;97892.84;;;-1.43;88.77
43503;BME280;29098;48.184;16.298;2024-01-15T01:56:02;97849.09;;;-1.54;88.29
43503;BME280;29098;48.184;16.298;2024-01-15T01:58:28;97868.91;;;-1.35;87.48
43503;BME280;29098;48.184;16.298;2024-01-15T02:00:54;97883.31;;;-1.32;87.01
43503;BME280;29098;48.184;16.298;2024-01-15T02:03:20;97917.53;;;-1.11;87.49
43503;BME280;29098;48.184;16.298;2024-01-15T02:05:47;97913.69;;;-1.06;86.76
43503;BME280;29098;48.184;16.298;2024-01-15T02:08:14;97892.22;;;-1.07;86.09
43503;BME280;29098;48.184;16.298;2024-01-15T02:10:39;97859.41;;;-1.16;85.86
43503;BME280;29098;48.184;16.298;2024-01-15T02:13:05;97893.50;;;-0.93;85.20
43503;BME280;29098;48.184;16.298;2024-01-15T02:15:30;97883.63;;;-1.07;85.14
43503;BME280;29098;48.184;16.298;2024-01-15T02:18:06;97901.44;;;-1.04;85.31
43503;BME280;29098;48.184;16.298;2024-01-15T02:20:35;97904.16;;;-0.96;84.74
43503;BME280;29098;48.184;16.298;2024-01-15T02:23:06;97873.38;;;-0.99;83.93
43503;BME280;29098;48.184;16.298;2024-01-15T02:25:33;97914.72;;;-0.89;83.80
43503;BME280;29098;48.184;16.298;2024-01-15T02:27:58;97891.91;;;-1.04;82.17
43503;BME280;29098;48.184;16.298;2024-01-15T02:30:25;97872.22;;;-0.87;81.60
43503;BME280;29098;48.184;16.298;2024-01-15T02:32:50;97836.53;;;-0.83;80.00
43503;BME280;29098;48.184;16.298;2024-01-15T02:35:16;97889.13;;;-0.46;79.16
43503;BME280;29098;48.184;16.298;2024-01-15T02:37:43;97899.25;;;-0.35;77.90
43503;BME280;29098;48.184;16.298;2024-01-15T02:40:09;97878.19;;;-0.22;76.75
43503;BME280;29098;48.184;16.298;2024-01-15T02:42:35;97863.91;;;-0.26;76.02
43503;BME280;29098;48.184;16.298;2024-01-15T02:45:00;97838.53;;;-0.40;75.11
43503;BME280;29098;48.184;16.298;2024-01-15T02:47:26;97890.09;;;-0.11;74.54
43503;BME280;29098;48.184;16.298;2024-01-15T02:49:51;97854.78;;;-0.12;74.28
43503;BME280;29098;48.184;16.298;2024-01-15T02:52:17;97909.47;;;0.03;73.84
43503;BME280;29098;48.184;16.298;2024-01-15T02:54:43;97819.06;;;-0.26;74.10
43503;BME280;29098;48.184;16.298;2024-01-15T02:57:08;97853.13;;;0.05;73.80
43503;BME280;29098;48.184;16.298;2024-01-15T02:59:34;97782.25;;;-0.38;73.54
43503;BME280;29098;48.184;16.298;2024-01-15T03:01:59;97863.34;;;0.07;73.87
43503;BME280;29098;48.184;16.298;2024-01-15T03:04:25;97872.16;;;0.14;73.63
43503;BME280;29098;48.184;16.298;2024-01-15T03:06:50;97843.03;;;-0.06;73.77
43503;BME280;29098;48.184;16.298;2024-01-15T03:09:15;97897.28;;;0.22;73.56
43503;BME280;29098;48.184;16.298;2024-01-15T03:11:41;97912.38;;;0.26;73.61
43503;BME280;29098;48.184;16.298;2024-01-15T03:14:06;97908.69;;;0.29;73.62
43503;BME280;29098;48.184;16.298;2024-01-15T03:16:32;97797.28;;;-0.16;73.41
43503;BME280;29098;48.184;16.298;2024-01-15T03:18:57;97883.16;;;0.16;73.46
43503;BME280;29098;48.184;16.298;2024-01-15T03:21:23;97857.84;;;0.10;73.80
43503;BME280;29098;48.184;16.298;2024-01-15T03:23:48;97846.69;;;0.09;73.96
43503;BME280;29098;48.184;16.298;2024-01-15T03:26:13;97916.19;;;0.32;74.12
43503;BME280;29098;48.184;16.298;2024-01-15T03:28:39;97894.50;;;0.15;74.45
43503;BME280;29098;48.184;16.298;2024-01-15T03:31:04;97918.47;;;0.35;74.49
43503;BME280;29098;48.184;16.298;2024-01-15T03:33:30;97870.34;;;0.15;74.80
43503;BME280;29098;48.184;16.298;2024-01-15T03:35:55;97908.69;;;0.29;74.89
43503;BME280;29098;48.184;16.298;2024-01-15T03:38:21;97915.44;;;0.22;75.32
43503;BME280;29098;48.184;16.298;2024-01-15T03:40:46;97909.16;;;0.24;75.46
43503;BME280;29098;48.184;16.298;2024-01-15T03:43:12;97891.91;;;0.15;75.68
43503;BME280;29098;48.184;16.298;2024-01-15T03:45:37;97879.50;;;0.01;75.80
43503;BME280;29098;48.184;16.298;2024-01-15T03:48:03;97939.66;;;0.31;75.70
43503;BME280;29098;48.184;16.298;2024-01-15T03:50:28;97946.78;;;0.29;75.90
43503;BME280;29098;48.184;16.298;2024-01-15T03:52:54;97919.38;;;0.26;76.10
43503;BME280;29098;48.184;16.298;2024-01-15T03:55:19;97891.03;;;0.06;76.37
43503;BME280;29098;48.184;16.298;2024-01-15T03:57:44;97887.59;;;-0.03;76.58
43503;BME280;29098;48.184;16.298;2024-01-15T04:00:10;97844.50;;;-0.04;76.13
43503;BME280;29098;48.184;16.298;2024-01-15T04:02:36;97845.44;;;-0.05;76.50
43503;BME280;29098;48.184;16.298;2024-01-15T04:05:02;97855.94;;;0.12;76.45
43503;BME280;29098;48.184;16.298;2024-01-15T04:07:27;97859.28;;;0.31;76.25
43503;BME280;29098;48.184;16.298;2024-01-15T04:09:53;97887.94;;;0.29;76.91
43503;BME280;29098;48.184;16.298;2024-01-15T04:12:18;97886.19;;;0.30;76.60
43503;BME280;29098;48.184;16.298;2024-01-15T04:14:43;97901.94;;;0.36;76.75
43503;BME280;29098;48.184;16.298;2024-01-15T04:17:09;97890.50;;;0.47;76.76
43503;BME280;29098;48.184;16.298;2024-01-15T04:19:34;97874.44;;;0.44;76.89
43503;BME280;29098;48.184;16.298;2024-01-15T04:22:00;97833.56;;;0.37;76.80
43503;BME280;29098;48.184;16.298;2024-01-15T04:24:25;97798.41;;;0.35;77.08
43503;BME280;29098;48.184;16.298;2024-01-15T04:26:51;97816.19;;;0.03;77.41
43503;BME280;29098;48.184;16.298;2024-01-15T04:29:16;97792.47;;;0.16;77.97
43503;BME280;29098;48.184;16.298;2024-01-15T04:31:42;97788.16;;;0.25;77.92
43503;BME280;29098;48.184;16.298;2024-01-15T04:34:07;97811.94;;;0.20;78.00
43503;BME280;29098;48.184;16.298;2024-01-15T04:36:38;97840.28;;;0.48;77.85
43503;BME280;29098;48.184;16.298;2024-01-15T04:39:04;97808.47;;;0.38;78.50
43503;BME280;29098;48.184;16.298;2024-01-15T04:41:30;97879.72;;;0.34;78.45
43503;BME280;29098;48.184;16.298;2024-01-15T04:43:55;97817.91;;;0.21;78.80
43503;BME280;29098;48.184;16.298;2024-01-15T04:46:20;97849.84;;;0.21;79.17
43503;BME280;29098;48.184;16.298;2024-01-15T04:48:46;97783.25;;;-0.05;79.24
43503;BME280;29098;48.184;16.298;2024-01-15T04:51:12;97817.84;;;-0.14;79.52
43503;BME280;29098;48.184;16.298;2024-01-15T04:53:37;97889.00;;;0.18;79.66
43503;BME280;29098;48.184;16.298;2024-01-15T04:56:03;97870.88;;;0.18;79.69
43503;BME280;29098;48.184;16.298;2024-01-15T04:58:28;97874.00;;;0.04;80.02
43503;BME280;29098;48.184;16.298;2024-01-15T05:00:54;97887.31;;;0.09;80.01
43503;BME280;29098;48.184;16.298;2024-01-15T05:03:19;97889.53;;;0.04;79.99
43503;BME280;29098;48.184;16.298;2024-01-15T05:05:45;97817.44;;;-0.28;79.51
43503;BME280;29098;48.184;16.298;2024-01-15T05:08:10;97913.56;;;0.06;80.02
43503;BME280;29098;48.184;16.298;2024-01-15T05:10:36;97898.91;;;-0.04;80.05
43503;BME280;29098;48.184;16.298;2024-01-15T05:13:01;97921.25;;;-0.03;79.51
43503;BME280;29098;48.184;16.298;2024-01-15T05:15:27;97873.88;;;-0.31;79.51
43503;BME280;29098;48.184;16.298;2024-01-15T05:17:52;97911.75;;;-0.12;79.58
43503;BME280;29098;48.184;16.298;2024-01-15T05:20:18;97923.34;;;-0.06;78.80
43503;BME280;29098;48.184;16.298;2024-01-15T05:22:43;97890.63;;;-0.07;78.16
43503;BME280;29098;48.184;16.298;2024-01-15T05:25:09;97900.81;;;-0.06;77.55
43503;BME280;29098;48.184;16.298;2024-01-15T05:27:34;97913.25;;;0.09;77.42
43503;BME280;29098;48.184;16.298;2024-01-15T05:30:00;97911.25;;;0.03;77.21
43503;BME280;29098;48.184;16.298;2024-01-15T05:32:25;97855.25;;;-0.35;77.04
43503;BME280;29098;48.184;16.298;2024-01-15T05:34:51;97847.56;;;-0.45;76.83
43503;BME280;29098;48.184;16.298;2024-01-15T05:37:16;97840.59;;;-0.44;76.74
43503;BME280;29098;48.184;16.298;2024-01-15T05:39:41;97924.38;;;0.01;76.69
43503;BME280;29098;48.184;16.298;2024-01-15T05:42:07;97942.84;;;0.06;76.66
43503;BME280;29098;48.184;16.298;2024-01-15T05:44:32;97919.84;;;0.03;75.63
43503;BME280;29098;48.184;16.298;2024-01-15T05:46:58;97901.66;;;-0.23;75.77
43503;BME280;29098;48.184;16.298;2024-01-15T05:49:23;97923.22;;;0.04;75.36
43503;BME280;29098;48.184;16.298;2024-01-15T05:51:49;97918.72;;;0.06;75.46
43503;BME280;29098;48.184;16.298;2024-01-15T05:54:14;97943.44;;;0.18;75.39
43503;BME280;29098;48.184;16.298;2024-01-15T05:56:40;97918.66;;;0.16;75.27
43503;BME280;29098;48.184;16.298;2024-01-15T05:59:05;97901.06;;;0.01;76.05
43503;BME280;29098;48.184;16.298;2024-01-15T06:01:30;97957.94;;;0.11;76.71
43503;BME280;29098;48.184;16.298;2024-01-15T06:03:56;97884.84;;;-0.19;77.81
43503;BME280;29098;48.184;16.298;2024-01-15T06:06:22;97924.72;;;-0.12;77.55
43503;BME280;29098;48.184;16.298;2024-01-15T06:08:47;97865.16;;;-0.48;78.57
43503;BME280;29098;48.184;16.298;2024-01-15T06:11:13;97875.53;;;-0.30;78.35
43503;BME280;29098;48.184;16.298;2024-01-15T06:13:38;97932.94;;;0.02;78.33
43503;BME280;29098;48.184;16.298;2024-01-15T06:16:13;97866.94;;;-0.31;78.31
43503;BME280;29098;48.184;16.298;2024-01-15T06:18:38;97942.94;;;-0.04;78.62
43503;BME280;29098;48.184;16.298;2024-01-15T06:21:04;97946.19;;;-0.02;79.45
43503;BME280;29098;48.184;16.298;2024-01-15T06:23:30;97948.56;;;-0.08;79.08
43503;BME280;29098;48.184;16.298;2024-01-15T06:25:56;97875.38;;;-0.29;79.43
43503;BME280;29098;48.184;16.298;2024-01-15T06:28:21;97958.31;;;-0.20;80.14
43503;BME280;29098;48.184;16.298;2024-01-15T06:30:47;97952.56;;;-0.14;80.29
43503;BME280;29098;48.184;16.298;2024-01-15T06:33:13;97937.31;;;-0.17;80.05
43503;BME280;29098;48.184;16.298;2024-01-15T06:35:38;97956.50;;;-0.10;80.43
43503;BME280;29098;48.184;16.298;2024-01-15T06:38:04;97951.91;;;-0.16;80.39
43503;BME280;29098;48.184;16.298;2024-01-15T06:40:29;97942.41;;;-0.25;80.52
43503;BME280;29098;48.184;16.298;2024-01-15T06:42:55;97898.66;;;-0.65;80.39
43503;BME280;29098;48.184;16.298;2024-01-15T06:45:20;97973.84;;;-0.38;80.67
43503;BME280;29098;48.184;16.298;2024-01-15T06:47:45;97945.88;;;-0.35;80.89
43503;BME280;29098;48.184;16.298;2024-01-15T06:50:11;97973.41;;;-0.16;80.70
43503;BME280;29098;48.184;16.298;2024-01-15T06:52:36;97923.28;;;-0.61;80.46
43503;BME280;29098;48.184;16.298;2024-01-15T06:55:02;97972.44;;;-0.33;80.52
43503;BME280;29098;48.184;16.298;2024-01-15T06:57:28;98020.34;;;-0.19;80.36
43503;BME280;29098;48.184;16.298;2024-01-15T06:59:53;98012.66;;;-0.10;79.25
43503;BME280;29098;48.184;16.298;2024-01-15T07:02:19;97963.06;;;-0.34;79.38
43503;BME280;29098;48.184;16.298;2024-01-15T07:04:44;97976.88;;;-0.25;79.09
43503;BME280;29098;48.184;16.298;2024-01-15T07:07:10;97985.88;;;-0.19;78.67
43503;BME280;29098;48.184;16.298;2024-01-15T07:09:35;97988.69;;;-0.12;78.97
43503;BME280;29098;48.184;16.298;2024-01-15T07:12:00;97938.41;;;-0.38;78.62
43503;BME280;29098;48.184;16.298;2024-01-15T07:14:26;97980.47;;;-0.08;78.29
43503;BME280;29098;48.184;16.298;2024-01-15T07:16:51;97992.19;;;-0.04;78.07
43503;BME280;29098;48.184;16.298;2024-01-15T07:19:17;97949.50;;;-0.28;77.51
43503;BME280;29098;48.184;16.298;2024-01-15T07:21:42;97993.34;;;0.02;77.52
43503;BME280;29098;48.184;16.298;2024-01-15T07:24:08;98005.78;;;-0.02;77.44
43503;BME280;29098;48.184;16.298;2024-01-15T07:26:34;97996.47;;;0.06;80.06
43503;BME280;29098;48.184;16.298;2024-01-15T07:28:59;97938.72;;;-0.41;78.65
43503;BME280;29098;48.184;16.298;2024-01-15T07:31:25;97960.06;;;-0.11;77.89
43503;BME280;29098;48.184;16.298;2024-01-15T07:33:50;97952.94;;;-0.09;78.06
43503;BME280;29098;48.184;16.298;2024-01-15T07:36:16;97998.16;;;0.15;77.08
43503;BME280;29098;48.184;16.298;2024-01-15T07:38:41;97982.38;;;0.26;76.83
43503;BME280;29098;48.184;16.298;2024-01-15T07:41:06;97990.69;;;0.12;77.57
43503;BME280;29098;48.184;16.298;2024-01-15T07:43:33;97921.53;;;0.12;75.49
43503;BME280;29098;48.184;16.298;2024-01-15T07:45:58;97988.97;;;0.39;76.10
43503;BME280;29098;48.184;16.298;2024-01-15T07:48:24;97927.16;;;0.08;75.51
43503;BME280;29098;48.184;16.298;2024-01-15T07:50:49;98001.84;;;0.49;75.88
43503;BME280;29098;48.184;16.298;2024-01-15T07:53:15;97984.44;;;0.41;75.73
43503;BME280;29098;48.184;16.298;2024-01-15T07:55:40;98005.63;;;0.54;75.78
43503;BME280;29098;48.184;16.298;2024-01-15T07:58:06;98007.91;;;0.58;75.77
43503;BME280;29098;48.184;16.298;2024-01-15T08:00:32;97981.69;;;0.61;75.50
43503;BME280;29098;48.184;16.298;2024-01-15T08:02:57;97979.63;;;0.46;76.03
43503;BME280;29098;48.184;16.298;2024-01-15T08:05:23;98020.44;;;0.62;75.57
43503;BME280;29098;48.184;16.298;2024-01-15T08:07:48;97983.97;;;0.64;75.79
43503;BME280;29098;48.184;16.298;2024-01-15T08:10:14;97958.22;;;0.44;75.99
43503;BME280;29098;48.184;16.298;2024-01-15T08:12:40;98014.81;;;0.67;75.96
43503;BME280;29098;48.184;16.298;2024-01-15T08:15:05;97996.28;;;0.62;76.55
43503;BME280;29098;48.184;16.298;2024-01-15T08:17:31;97978.50;;;0.67;75.79
43503;BME280;29098;48.184;16.298;2024-01-15T08:19:57;97988.44;;;0.53;75.93
43503;BME280;29098;48.184;16.298;2024-01-15T08:22:23;97986.28;;;0.67;75.88
43503;BME280;29098;48.184;16.298;2024-01-15T08:24:48;97987.56;;;0.71;75.38
43503;BME280;29098;48.184;16.298;2024-01-15T08:27:14;97998.84;;;0.80;75.36
43503;BME280;29098;48.184;16.298;2024-01-15T08:29:40;98022.03;;;0.81;75.73
43503;BME280;29098;48.184;16.298;2024-01-15T08:32:05;97981.13;;;0.75;74.59
43503;BME280;29098;48.184;16.298;2024-01-15T08:34:31;97989.16;;;0.90;74.97
43503;BME280;29098;48.184;16.298;2024-01-15T08:36:56;97894.34;;;0.35;74.92
43503;BME280;29098;48.184;16.298;2024-01-15T08:39:22;97916.44;;;0.47;74.80
43503;BME280;29098;48.184;16.298;2024-01-15T08:41:47;97985.97;;;0.97;74.93
43503;BME280;29098;48.184;16.298;2024-01-15T08:44:13;97980.63;;;0.98;74.40
43503;BME280;29098;48.184;16.298;2024-01-15T08:46:38;97970.25;;;0.98;74.82
43503;BME280;29098;48.184;16.298;2024-01-15T08:49:04;97949.25;;;0.91;74.39
43503;BME280;29098;48.184;16.298;2024-01-15T08:51:29;97915.03;;;0.61;74.46
43503;BME280;29098;48.184;16.298;2024-01-15T08:53:56;97964.19;;;0.89;74.97
43503;BME280;29098;48.184;16.298;2024-01-15T08:56:22;97968.22;;;0.84;74.75
43503;BME280;29098;48.184;16.298;2024-01-15T08:58:47;97966.97;;;0.96;74.33
43503;BME280;29098;48.184;16.298;2024-01-15T09:01:13;97951.75;;;1.01;73.95
43503;BME280;29098;48.184;16.298;2024-01-15T09:03:40;97995.94;;;1.18;73.85
43503;BME280;29098;48.184;16.298;2024-01-15T09:06:08;98006.03;;;1.21;73.43
43503;BME280;29098;48.184;16.298;2024-01-15T09:08:35;97952.22;;;0.97;73.34
43503;BME280;29098;48.184;16.298;2024-01-15T09:11:01;97989.47;;;1.14;73.57
43503;BME280;29098;48.184;16.298;2024-01-15T09:13:28;98003.09;;;1.16;73.42
43503;BME280;29098;48.184;16.298;2024-01-15T09:15:53;97997.31;;;1.30;73.74
43503;BME280;29098;48.184;16.298;2024-01-15T09:18:19;97986.53;;;1.17;73.83
43503;BME280;29098;48.184;16.298;2024-01-15T09:20:44;98016.06;;;1.16;74.39
43503;BME280;29098;48.184;16.298;2024-01-15T09:23:10;98010.50;;;1.11;74.33
43503;BME280;29098;48.184;16.298;2024-01-15T09:25:35;97993.81;;;1.13;74.28
43503;BME280;29098;48.184;16.298;2024-01-15T09:28:01;98013.47;;;1.16;74.82
43503;BME280;29098;48.184;16.298;2024-01-15T09:30:27;97978.06;;;1.06;74.83
43503;BME280;29098;48.184;16.298;2024-01-15T09:32:53;98011.84;;;1.15;75.19
43503;BME280;29098;48.184;16.298;2024-01-15T09:35:18;97998.25;;;1.21;75.41
43503;BME280;29098;48.184;16.298;2024-01-15T09:37:44;97968.09;;;1.20;75.24
43503;BME280;29098;48.184;16.298;2024-01-15T09:40:13;97968.25;;;1.27;74.85
43503;BME280;29098;48.184;16.298;2024-01-15T09:42:44;97966.63;;;1.26;75.34
43503;BME280;29098;48.184;16.298;2024-01-15T09:45:10;98017.31;;;1.38;74.75
43503;BME280;29098;48.184;16.298;2024-01-15T09:47:37;97985.06;;;1.49;75.11
43503;BME280;29098;48.184;16.298;2024-01-15T09:50:03;97907.69;;;1.18;74.66
43503;BME280;29098;48.184;16.298;2024-01-15T09:52:30;97966.28;;;1.63;74.38
43503;BME280;29098;48.184;16.298;2024-01-15T09:54:58;97964.03;;;1.77;73.81
43503;BME280;29098;48.184;16.298;2024-01-15T09:57:24;97949.03;;;1.54;74.19
43503;BME280;29098;48.184;16.298;2024-01-15T09:59:52;97994.38;;;1.76;74.18
43503;BME280;29098;48.184;16.298;2024-01-15T10:02:19;97980.63;;;1.92;74.34
43503;BME280;29098;48.184;16.298;2024-01-15T10:04:46;97973.81;;;2.00;74.01
43503;BME280;29098;48.184;16.298;2024-01-15T10:07:16;97965.69;;;2.11;74.03
43503;BME280;29098;48.184;16.298;2024-01-15T10:09:44;97923.16;;;2.12;73.31
43503;BME280;29098;48.184;16.298;2024-01-15T10:12:11;97953.03;;;2.16;73.54
43503;BME280;29098;48.184;16.298;2024-01-15T10:14:37;97960.84;;;2.33;73.80
43503;BME280;29098;48.184;16.298;2024-01-15T10:17:12;97960.53;;;2.44;73.13
43503;BME280;29098;48.184;16.298;2024-01-15T10:19:38;97885.13;;;2.19;72.16
43503;BME280;29098;48.184;16.298;2024-01-15T10:22:04;97941.78;;;2.66;72.06
43503;BME280;29098;48.184;16.298;2024-01-15T10:24:30;97948.94;;;2.72;72.02
43503;BME280;29098;48.184;16.298;2024-01-15T10:27:05;97939.44;;;3.44;79.79
43503;BME280;29098;48.184;16.298;2024-01-15T10:29:32;97912.91;;;3.00;74.38
43503;BME280;29098;48.184;16.298;2024-01-15T10:31:58;97935.09;;;3.28;72.94
43503;BME280;29098;48.184;16.298;2024-01-15T10:34:24;97918.28;;;3.70;70.63
43503;BME280;29098;48.184;16.298;2024-01-15T10:36:50;97862.09;;;3.13;68.88
43503;BME280;29098;48.184;16.298;2024-01-15T10:39:21;97881.75;;;3.24;68.90
43503;BME280;29098;48.184;16.298;2024-01-15T10:41:47;97893.56;;;2.95;69.03
43503;BME280;29098;48.184;16.298;2024-01-15T10:44:12;97940.88;;;3.07;69.37
43503;BME280;29098;48.184;16.298;2024-01-15T10:46:39;97915.16;;;3.04;68.14
43503;BME280;29098;48.184;16.298;2024-01-15T10:49:04;97874.31;;;2.56;69.21
43503;BME280;29098;48.184;16.298;2024-01-15T10:51:31;97921.56;;;2.84;68.58
43503;BME280;29098;48.184;16.298;2024-01-15T10:53:57;97885.84;;;2.70;69.31
43503;BME280;29098;48.184;16.298;2024-01-15T10:56:23;97919.25;;;2.98;69.31
43503;BME280;29098;48.184;16.298;2024-01-15T10:58:50;97910.09;;;2.62;69.29
43503;BME280;29098;48.184;16.298;2024-01-15T11:01:16;97936.88;;;2.87;69.83
43503;BME280;29098;48.184;16.298;2024-01-15T11:03:43;97894.06;;;2.90;69.46
43503;BME280;29098;48.184;16.298;2024-01-15T11:06:19;97894.72;;;2.92;69.04
43503;BME280;29098;48.184;16.298;2024-01-15T11:08:49;97923.91;;;3.11;69.48
43503;BME280;29098;48.184;16.298;2024-01-15T11:11:16;97920.28;;;3.28;69.99
43503;BME280;29098;48.184;16.298;2024-01-15T11:13:43;97919.84;;;3.48;68.86
43503;BME280;29098;48.184;16.298;2024-01-15T11:16:14;97894.28;;;3.20;69.27
43503;BME280;29098;48.184;16.298;2024-01-15T11:18:48;97925.06;;;3.48;68.54
43503;BME280;29098;48.184;16.298;2024-01-15T11:21:26;97889.41;;;3.49;67.80
43503;BME280;29098;48.184;16.298;2024-01-15T11:23:57;97905.72;;;3.42;68.26
43503;BME280;29098;48.184;16.298;2024-01-15T11:26:37;97937.38;;;3.63;68.75
43503;BME280;29098;48.184;16.298;2024-01-15T11:29:03;97917.59;;;3.45;68.52
43503;BME280;29098;48.184;16.298;2024-01-15T11:34:04;97914.84;;;3.38;69.19
43503;BME280;29098;48.184;16.298;2024-01-15T11:41:54;97932.63;;;3.66;68.57
43503;BME280;29098;48.184;16.298;2024-01-15T11:44:20;97906.06;;;3.39;69.10
43503;BME280;29098;48.184;16.298;2024-01-15T11:52:16;97928.69;;;3.39;70.13
43503;BME280;29098;48.184;16.298;2024-01-15T11:54:54;97918.91;;;3.41;70.26
43503;BME280;29098;48.184;16.298;2024-01-15T11:57:33;97868.19;;;3.28;70.59
43503;BME280;29098;48.184;16.298;2024-01-15T11:59:58;97889.56;;;3.15;71.45
43503;BME280;29098;48.184;16.298;2024-01-15T12:02:24;97899.72;;;3.02;72.24
43503;BME280;29098;48.184;16.298;2024-01-15T12:04:49;97813.03;;;2.53;73.01
43503;BME280;29098;48.184;16.298;2024-01-15T12:07:15;97859.41;;;2.90;72.13
43503;BME280;29098;48.184;16.298;2024-01-15T12:09:44;97831.69;;;2.73;73.17
43503;BME280;29098;48.184;16.298;2024-01-15T12:12:13;97814.72;;;2.78;72.99
43503;BME280;29098;48.184;16.298;2024-01-15T12:14:40;97807.94;;;3.08;73.03
43503;BME280;29098;48.184;16.298;2024-01-15T12:17:06;97845.38;;;3.54;71.31
43503;BME280;29098;48.184;16.298;2024-01-15T12:19:32;97885.25;;;3.63;71.45
43503;BME280;29098;48.184;16.298;2024-01-15T12:21:57;97871.16;;;3.72;71.33
43503;BME280;29098;48.184;16.298;2024-01-15T12:24:23;97879.72;;;3.66;70.95
43503;BME280;29098;48.184;16.298;2024-01-15T12:26:48;97854.91;;;3.70;69.88
43503;BME280;29098;48.184;16.298;2024-01-15T12:29:17;97851.19;;;3.88;70.02
43503;BME280;29098;48.184;16.298;2024-01-15T12:31:43;97898.41;;;4.16;69.28
43503;BME280;29098;48.184;16.298;2024-01-15T12:34:08;97832.44;;;3.69;67.91
43503;BME280;29098;48.184;16.298;2024-01-15T12:36:34;97908.41;;;4.04;68.21
43503;BME280;29098;48.184;16.298;2024-01-15T12:39:00;97851.31;;;3.71;67.53
43503;BME280;29098;48.184;16.298;2024-01-15T12:41:25;97856.66;;;3.78;68.06
43503;BME280;29098;48.184;16.298;2024-01-15T12:43:51;97823.25;;;3.73;67.27
43503;BME280;29098;48.184;16.298;2024-01-15T12:46:16;97807.00;;;3.71;67.63
43503;BME280;29098;48.184;16.298;2024-01-15T12:48:42;97851.78;;;4.13;66.49
43503;BME280;29098;48.184;16.298;2024-01-15T12:51:08;97879.03;;;4.10;67.10
43503;BME280;29098;48.184;16.298;2024-01-15T12:53:33;97874.91;;;4.16;66.67
43503;BME280;29098;48.184;16.298;2024-01-15T12:55:59;97831.59;;;3.92;66.15
43503;BME280;29098;48.184;16.298;2024-01-15T12:58:24;97807.38;;;3.83;65.85
43503;BME280;29098;48.184;16.298;2024-01-15T13:00:50;97853.97;;;3.86;65.46
43503;BME280;29098;48.184;16.298;2024-01-15T13:03:15;97880.91;;;3.55;65.12